Portada
METAR-TAF:

METAR-TAF

Aeroports :

Brunei, Brunei

latitud: 04-56N, longitud: 114-56E, altitud: 22 m

Observació

L'informe es va fer fa 18 minuts, a les 11:00 UTC
Vent 2 kt del Nord-Oest
Temperatura 30°C
Humitat 79%
Pressió 1010 hPa
Visibilitat: 4000 m
Escasses núvols a una alçada de 1600 ft
Cel ennuvolat a una alçada de 28000 ft
calitja

METAR: WBSB 181100Z 32002KT 4000 HZ FEW016 BKN280 30/26 Q1010 NOSIG

Hora: 19:18 (11:18 UTC)

Pronòstic

L'informe es va fer fa 6 hores i 28 minuts, a les 04:50 UTC
Pronòstic vàlid del 18 a les 06 UTC al 19 a les 12 UTC
Vent 8 kt del Oest/Nord-Oest
Visibilitat: 4000 m
Escasses núvols a una alçada de 1700 ft
calitja
Evolucionant progressivament
l' 18 a les 12 UTC al 18 a les 14 UTC
Vent 4 kt del Sud/Sud-Oest
Escasses núvols a una alçada de 1600 ft
Temporalment
l' 18 a les 16 UTC al 18 a les 18 UTC
Visibilitat: 3000 m
xàfecs de pluja

TAF: WBSB 180450Z 1806/1912 30008KT 4000 HZ FEW017 BECMG 1812/1814 20004KT FEW016 TEMPO 1816/1818 3000 -SHRA

Observacions i pronòstics meteorològics de més de 4000 aeroports (METAR i TAF).

Les estacions disponibles són els punts grocs i vermells al mapa.

Posi el ratolí al punt desitjat per veure el nom de l'estació.

Feu clic per veure les observacions i els pronòstics meteorològics.

Per canviar el mapa: feu clic els botons verds amb una creu de color negre per apropar; al botó verd amb un guió per allunyar la imatge; o en les fletxes verdes per a mapes adjacents.


METAR-TAF: